Time;durP1;ratioP1;P1;durP2;ratioP2;P2;SDS_P1;SDS_P2;PMS_P1;PMS_P2;Temp;Humidity;BMP_temperature;BMP_pressure;BME280_temperature;BME280_humidity;BME280_pressure;Samples;Min_cycle;Max_cycle;Signal;HPM_P1;HPM_P2
2024/01/10 00:02:06;;;;;;;3.67;1.65;;;;;;;-5.62;59.50;102995.69;5085691;28;20226;-72
2024/01/10 00:04:33;;;;;;;3.35;1.80;;;;;;;-5.63;59.89;102993.91;5068111;28;20044;-71
2024/01/10 00:07:00;;;;;;;5.35;2.28;;;;;;;-5.65;60.03;102998.06;5068296;28;20039;-71
2024/01/10 00:09:27;;;;;;;4.57;1.75;;;;;;;-5.69;60.11;102993.47;5071439;28;20056;-71
2024/01/10 00:11:54;;;;;;;6.00;2.58;;;;;;;-5.69;60.10;102995.13;5070962;28;20591;-71
2024/01/10 00:14:21;;;;;;;4.45;2.45;;;;;;;-5.69;60.00;102984.84;5084999;28;20036;-71
2024/01/10 00:16:48;;;;;;;4.10;1.65;;;;;;;-5.69;60.11;102988.34;5074696;28;20036;-71
2024/01/10 00:19:15;;;;;;;1.98;1.33;;;;;;;-5.70;60.19;102978.84;5074928;28;20033;-71
2024/01/10 00:21:43;;;;;;;3.90;2.20;;;;;;;-5.70;60.17;102980.53;5067969;28;20067;-71
2024/01/10 00:24:10;;;;;;;4.07;1.83;;;;;;;-5.72;60.09;102982.09;5082726;28;20048;-71
2024/01/10 00:26:37;;;;;;;3.15;2.13;;;;;;;-5.73;60.00;102976.03;5093705;28;20040;-71
2024/01/10 00:29:04;;;;;;;3.55;1.83;;;;;;;-5.69;59.86;102969.44;5065935;28;20048;-71
2024/01/10 00:31:31;;;;;;;4.57;1.98;;;;;;;-5.66;59.82;102967.09;5080817;28;20036;-71
2024/01/10 00:33:58;;;;;;;6.38;2.03;;;;;;;-5.63;59.59;102960.47;5081960;28;20071;-72
2024/01/10 00:36:26;;;;;;;5.97;2.08;;;;;;;-5.63;59.55;102960.47;5069523;28;20068;-72
2024/01/10 00:38:53;;;;;;;9.68;2.53;;;;;;;-5.63;59.62;102957.03;5077864;28;20135;-72
2024/01/10 00:41:20;;;;;;;4.63;1.83;;;;;;;-5.63;59.73;102960.47;5081656;28;20461;-72
2024/01/10 00:43:47;;;;;;;5.70;3.03;;;;;;;-5.63;59.94;102952.78;5072995;28;20123;-72
2024/01/10 00:46:14;;;;;;;4.63;2.47;;;;;;;-5.61;60.03;102955.47;5075914;28;20044;-72
2024/01/10 00:48:41;;;;;;;3.45;1.88;;;;;;;-5.59;59.86;102968.41;5082903;28;20045;-72
2024/01/10 00:51:10;;;;;;;6.65;2.45;;;;;;;-5.59;59.99;102955.56;5063510;28;20044;-71
2024/01/10 00:53:40;;;;;;;3.55;1.80;;;;;;;-5.58;60.27;102950.53;5085848;28;20127;-72
2024/01/10 00:56:07;;;;;;;4.63;2.03;;;;;;;-5.59;60.57;102950.44;5078553;28;20131;-72
2024/01/10 00:58:35;;;;;;;3.65;2.00;;;;;;;-5.58;60.56;102947.06;5088220;28;20040;-72
2024/01/10 01:01:02;;;;;;;5.70;2.85;;;;;;;-5.64;60.73;102948.41;5075793;28;20559;-72
2024/01/10 01:03:30;;;;;;;3.38;1.77;;;;;;;-5.66;60.47;102949.09;5086933;28;20040;-72
2024/01/10 01:05:57;;;;;;;4.60;2.17;;;;;;;-5.66;60.98;102950.00;5082549;28;20062;-72
2024/01/10 01:08:24;;;;;;;7.30;2.50;;;;;;;-5.69;60.84;102954.94;5078146;28;20040;-72
2024/01/10 01:10:51;;;;;;;3.13;1.70;;;;;;;-5.66;60.78;102956.81;5075733;28;20036;-72
2024/01/10 01:13:18;;;;;;;2.55;1.83;;;;;;;-5.66;60.91;102960.28;5078088;28;20052;-72
2024/01/10 01:15:45;;;;;;;5.47;2.33;;;;;;;-5.67;61.05;102947.31;5086111;28;20035;-72
2024/01/10 01:18:13;;;;;;;2.63;1.65;;;;;;;-5.68;61.26;102950.66;5077146;28;20135;-72
2024/01/10 01:20:40;;;;;;;4.80;1.88;;;;;;;-5.71;61.19;102958.19;5084893;28;20040;-71
2024/01/10 01:23:07;;;;;;;4.65;2.47;;;;;;;-5.72;61.15;102951.25;5078353;28;20036;-71
2024/01/10 01:25:34;;;;;;;4.75;2.45;;;;;;;-5.73;61.76;102945.19;5069497;28;20044;-71
2024/01/10 01:28:02;;;;;;;7.78;4.20;;;;;;;-5.71;61.88;102932.47;5093420;28;20041;-71
2024/01/10 01:30:29;;;;;;;4.60;1.58;;;;;;;-5.73;61.84;102934.94;5082699;28;20156;-71
2024/01/10 01:32:56;;;;;;;6.07;1.92;;;;;;;-5.77;61.76;102936.38;5101915;28;20051;-72
2024/01/10 01:35:23;;;;;;;4.70;2.33;;;;;;;-5.80;61.94;102941.31;5094402;28;20048;-71
2024/01/10 01:37:51;;;;;;;4.18;2.25;;;;;;;-5.82;62.33;102939.41;5084828;28;20043;-72
2024/01/10 01:40:19;;;;;;;4.60;2.55;;;;;;;-5.81;62.53;102944.69;5088635;28;20048;-71
2024/01/10 01:42:46;;;;;;;4.53;2.22;;;;;;;-5.80;62.55;102941.31;5074038;28;20513;-71
2024/01/10 01:45:13;;;;;;;4.63;1.65;;;;;;;-5.83;62.61;102946.25;5082219;28;20089;-71
2024/01/10 01:47:41;;;;;;;4.10;2.00;;;;;;;-5.82;62.91;102944.56;5088792;28;20471;-71
2024/01/10 01:50:10;;;;;;;4.03;1.98;;;;;;;-5.85;62.97;102934.97;5073292;28;20508;-71
2024/01/10 01:52:37;;;;;;;5.13;2.03;;;;;;;-5.90;63.02;102940.56;5091037;28;20036;-71
2024/01/10 01:55:07;;;;;;;3.78;1.92;;;;;;;-5.89;63.53;102935.53;5084815;28;20058;-71
2024/01/10 01:57:37;;;;;;;4.20;1.75;;;;;;;-5.88;63.38;102939.00;5070300;28;20079;-71
2024/01/10 02:00:06;;;;;;;3.33;1.80;;;;;;;-5.89;63.55;102934.63;5078479;28;20040;-71
2024/01/10 02:02:35;;;;;;;4.38;1.88;;;;;;;-5.92;63.54;102933.63;5070385;28;20079;-71
2024/01/10 02:05:03;;;;;;;5.40;2.33;;;;;;;-5.91;63.66;102937.13;5085536;28;20050;-71
2024/01/10 02:07:31;;;;;;;3.13;1.85;;;;;;;-5.93;64.00;102928.41;5085653;28;20039;-71
2024/01/10 02:09:58;;;;;;;3.55;1.85;;;;;;;-5.93;63.90;102934.41;5075983;28;20518;-71
2024/01/10 02:12:25;;;;;;;5.00;1.65;;;;;;;-5.93;63.85;102929.28;5088997;28;20044;-71
2024/01/10 02:14:52;;;;;;;6.25;2.75;;;;;;;-5.90;63.95;102925.16;5071625;28;20064;-71
2024/01/10 02:17:19;;;;;;;4.50;2.10;;;;;;;-5.90;63.68;102930.28;5070748;28;20587;-71
2024/01/10 02:19:47;;;;;;;2.47;1.73;;;;;;;-5.94;63.79;102924.03;5081708;28;20089;-71
2024/01/10 02:22:14;;;;;;;3.25;2.03;;;;;;;-5.93;63.99;102929.28;5076249;28;20052;-71
2024/01/10 02:24:41;;;;;;;4.75;2.03;;;;;;;-5.94;63.94;102919.78;5085327;28;20036;-72
2024/01/10 02:27:08;;;;;;;4.28;2.05;;;;;;;-5.95;63.85;102918.00;5088226;28;20040;-71
2024/01/10 02:29:35;;;;;;;5.80;2.40;;;;;;;-5.93;63.67;102920.69;5088515;28;20047;-71
2024/01/10 02:32:03;;;;;;;3.60;1.95;;;;;;;-5.92;63.60;102915.66;5088574;28;20465;-71
2024/01/10 02:34:30;;;;;;;5.38;2.28;;;;;;;-5.91;63.65;102916.56;5077303;28;20059;-71
2024/01/10 02:36:58;;;;;;;6.25;2.85;;;;;;;-5.91;64.02;102916.56;5088025;28;20040;-71
2024/01/10 02:39:25;;;;;;;12.25;3.78;;;;;;;-5.89;63.85;102901.25;5089344;28;20054;-71
2024/01/10 02:41:52;;;;;;;4.70;2.45;;;;;;;-5.87;63.88;102907.38;5082333;28;20052;-71
2024/01/10 02:44:19;;;;;;;2.95;1.85;;;;;;;-5.88;63.61;102903.91;5100251;28;20045;-71
2024/01/10 02:46:46;;;;;;;5.38;2.83;;;;;;;-5.88;63.81;102903.91;5084574;28;20044;-71
2024/01/10 02:49:14;;;;;;;4.05;1.65;;;;;;;-5.89;63.73;102914.97;5089012;28;20048;-71
2024/01/10 02:51:41;;;;;;;5.53;1.63;;;;;;;-5.89;63.73;102916.66;5089057;28;20038;-71
2024/01/10 02:54:08;;;;;;;5.47;2.13;;;;;;;-5.93;64.03;102918.13;5082825;28;20040;-70
2024/01/10 02:56:35;;;;;;;6.20;2.15;;;;;;;-5.97;64.17;102917.03;5082053;28;20404;-71
2024/01/10 02:59:02;;;;;;;3.53;2.15;;;;;;;-6.01;64.65;102927.00;5087164;28;20071;-71
2024/01/10 03:01:29;;;;;;;5.53;2.53;;;;;;;-6.03;64.65;102920.84;5076609;28;20067;-71
2024/01/10 03:03:56;;;;;;;7.80;2.40;;;;;;;-6.01;64.76;102922.75;5068379;28;20037;-71
2024/01/10 03:06:24;;;;;;;4.28;2.30;;;;;;;-6.02;64.97;102918.38;5066806;28;20090;-71
2024/01/10 03:08:51;;;;;;;4.20;2.22;;;;;;;-6.04;65.17;102919.94;5061536;28;20048;-71
2024/01/10 03:11:18;;;;;;;4.53;2.10;;;;;;;-6.04;65.17;102921.63;5072502;28;20036;-72
2024/01/10 03:14:00;;;;;;;4.72;2.25;;;;;;;-6.06;65.19;102918.06;5083951;28;20656;-71
2024/01/10 03:16:28;;;;;;;4.50;1.95;;;;;;;-6.08;65.08;102910.25;5072407;28;20032;-71
2024/01/10 03:18:55;;;;;;;2.88;1.92;;;;;;;-6.05;65.26;102910.44;5071208;28;20044;-71
2024/01/10 03:21:26;;;;;;;8.13;2.60;;;;;;;-6.06;65.51;102911.25;5073237;28;20636;-71
2024/01/10 03:23:58;;;;;;;8.70;2.80;;;;;;;-6.15;65.46;102916.63;5077061;28;20123;-70
2024/01/10 03:26:26;;;;;;;4.55;2.38;;;;;;;-6.18;66.07;102907.81;5083654;28;20044;-71
2024/01/10 03:28:54;;;;;;;3.50;1.48;;;;;;;-6.16;66.21;102907.13;5071877;28;20160;-71
2024/01/10 03:31:21;;;;;;;5.75;2.58;;;;;;;-6.18;66.19;102898.41;5076574;28;20496;-70
2024/01/10 03:33:49;;;;;;;3.42;2.17;;;;;;;-6.18;66.38;102893.28;5077940;28;20510;-71
2024/01/10 03:36:18;;;;;;;4.82;2.13;;;;;;;-6.21;66.60;102893.09;5083996;28;20456;-70
2024/01/10 03:38:45;;;;;;;3.92;2.13;;;;;;;-6.19;66.41;102895.75;5100151;28;20110;-70
2024/01/10 03:41:20;;;;;;;4.40;2.30;;;;;;;-6.19;66.44;102885.47;5067290;28;20079;-71
2024/01/10 03:43:47;;;;;;;7.13;2.30;;;;;;;-6.19;66.67;102891.50;5070553;28;20056;-71
2024/01/10 03:46:15;;;;;;;6.30;2.60;;;;;;;-6.15;66.59;102877.19;5071051;28;20041;-71
2024/01/10 03:48:50;;;;;;;5.68;2.40;;;;;;;-6.16;66.70;102883.16;5083872;28;20545;-70
2024/01/10 03:51:18;;;;;;;6.72;2.03;;;;;;;-6.17;67.16;102884.81;5067763;28;20040;-71
2024/01/10 03:53:46;;;;;;;2.88;1.67;;;;;;;-6.18;67.16;102877.88;5081804;28;20043;-71
2024/01/10 03:56:13;;;;;;;6.05;2.20;;;;;;;-6.20;67.48;102882.00;5074075;28;20143;-70
2024/01/10 03:58:40;;;;;;;3.78;2.17;;;;;;;-6.24;67.55;102874.88;5082487;28;20044;-71
2024/01/10 04:01:08;;;;;;;4.78;2.20;;;;;;;-6.26;67.37;102881.56;5073853;28;20838;-71
2024/01/10 04:03:36;;;;;;;3.88;2.03;;;;;;;-6.30;67.39;102875.34;5093659;28;20036;-71
2024/01/10 04:06:04;;;;;;;9.60;2.83;;;;;;;-6.29;68.07;102878.78;5073717;28;20068;-71
2024/01/10 04:08:31;;;;;;;4.82;2.05;;;;;;;-6.31;68.12;102885.50;5065797;28;20086;-71
2024/01/10 04:10:58;;;;;;;3.20;2.15;;;;;;;-6.33;68.12;102876.81;5075558;28;20089;-71
2024/01/10 04:13:26;;;;;;;5.85;2.17;;;;;;;-6.34;68.46;102870.75;5076328;28;20046;-70
2024/01/10 04:15:53;;;;;;;5.70;2.30;;;;;;;-6.33;68.50;102874.22;5097594;28;20050;-71
2024/01/10 04:18:21;;;;;;;5.78;2.08;;;;;;;-6.37;68.73;102861.94;5085139;28;20361;-71
2024/01/10 04:20:49;;;;;;;3.67;1.83;;;;;;;-6.37;68.77;102861.94;5086542;28;20123;-71
2024/01/10 04:23:16;;;;;;;6.90;2.30;;;;;;;-6.36;68.79;102858.59;5087596;28;20119;-71
2024/01/10 04:25:44;;;;;;;3.38;2.20;;;;;;;-6.34;69.16;102860.50;5087163;28;20068;-71
2024/01/10 04:28:11;;;;;;;3.63;1.92;;;;;;;-6.38;69.17;102853.38;5079553;28;20499;-71
2024/01/10 04:30:38;;;;;;;4.60;2.30;;;;;;;-6.40;69.27;102855.81;5074845;28;20039;-71
2024/01/10 04:33:06;;;;;;;2.58;2.15;;;;;;;-6.41;69.48;102850.56;5085805;28;20039;-71
2024/01/10 04:35:33;;;;;;;6.80;2.63;;;;;;;-6.41;69.86;102848.00;5084775;28;20048;-71
2024/01/10 04:38:00;;;;;;;7.32;2.97;;;;;;;-6.41;69.79;102837.75;5069603;28;20032;-71
2024/01/10 04:40:27;;;;;;;5.28;2.60;;;;;;;-6.39;69.75;102846.44;5073045;28;20884;-71
2024/01/10 04:42:54;;;;;;;4.95;2.58;;;;;;;-6.41;69.66;102848.00;5069709;28;20093;-71
2024/01/10 04:45:21;;;;;;;6.35;2.85;;;;;;;-6.44;69.52;102847.78;5073266;28;20121;-71
2024/01/10 04:47:48;;;;;;;5.03;2.42;;;;;;;-6.44;70.11;102850.34;5083813;28;20048;-71
2024/01/10 04:50:16;;;;;;;3.92;2.25;;;;;;;-6.50;70.08;102853.34;5077165;28;20106;-71
2024/01/10 04:52:43;;;;;;;5.10;3.13;;;;;;;-6.52;70.16;102844.69;5080112;28;20040;-70
2024/01/10 04:55:10;;;;;;;4.00;1.98;;;;;;;-6.53;70.51;102842.00;5084467;28;20051;-71
2024/01/10 04:57:38;;;;;;;6.65;2.88;;;;;;;-6.56;70.55;102846.09;5086687;28;20056;-70
2024/01/10 05:00:06;;;;;;;5.93;3.05;;;;;;;-6.56;70.69;102848.69;5079760;28;20170;-71
2024/01/10 05:02:33;;;;;;;3.38;1.92;;;;;;;-6.60;70.94;102851.81;5077089;28;20126;-71
2024/01/10 05:05:01;;;;;;;5.15;2.72;;;;;;;-6.62;71.02;102853.38;5096084;28;20528;-71
2024/01/10 05:07:28;;;;;;;4.18;2.05;;;;;;;-6.68;70.83;102852.94;5071607;28;20389;-71
2024/01/10 05:09:55;;;;;;;5.80;2.00;;;;;;;-6.74;71.25;102861.09;5087763;28;20053;-70
2024/01/10 05:12:23;;;;;;;3.88;2.05;;;;;;;-6.78;71.36;102861.63;5083885;28;20068;-70
2024/01/10 05:14:50;;;;;;;3.78;2.20;;;;;;;-6.79;71.90;102864.97;5078154;28;20036;-72
2024/01/10 05:17:18;;;;;;;7.90;2.55;;;;;;;-6.83;71.48;102877.47;5085041;28;20101;-71
2024/01/10 05:19:45;;;;;;;8.55;3.05;;;;;;;-6.89;71.71;102873.69;5070679;28;20041;-72
2024/01/10 05:22:13;;;;;;;5.43;2.22;;;;;;;-6.90;72.06;102860.72;5076011;28;20699;-72
2024/01/10 05:24:40;;;;;;;4.05;1.92;;;;;;;-6.85;72.13;102869.66;5076843;28;20110;-72
2024/01/10 05:27:07;;;;;;;5.88;2.70;;;;;;;-6.82;72.31;102866.44;5085065;28;20043;-72
2024/01/10 05:29:34;;;;;;;4.70;1.48;;;;;;;-6.83;72.68;102862.97;5086801;28;20040;-72
2024/01/10 05:32:01;;;;;;;3.85;2.50;;;;;;;-6.80;72.54;102855.50;5092338;28;20040;-73
2024/01/10 05:34:29;;;;;;;4.50;2.47;;;;;;;-6.80;72.57;102852.94;5075289;28;20139;-73
2024/01/10 05:36:56;;;;;;;3.75;1.70;;;;;;;-6.80;72.62;102854.63;5077905;28;20462;-73
2024/01/10 05:39:23;;;;;;;6.30;2.88;;;;;;;-6.83;72.83;102852.72;5076928;28;20136;-72
2024/01/10 05:41:50;;;;;;;2.83;1.52;;;;;;;-6.86;72.90;102861.06;5071999;28;20114;-71
2024/01/10 05:44:17;;;;;;;8.02;2.42;;;;;;;-6.81;73.85;102856.25;5078099;28;20147;-71
2024/01/10 05:46:45;;;;;;;4.25;2.38;;;;;;;-6.72;74.20;102858.63;5082570;28;20044;-72
2024/01/10 05:49:12;;;;;;;5.03;2.50;;;;;;;-6.69;74.34;102853.72;5080526;28;20334;-72
2024/01/10 05:51:40;;;;;;;4.32;2.08;;;;;;;-6.69;73.61;102858.84;5079141;28;20043;-72
2024/01/10 05:54:07;;;;;;;3.95;2.10;;;;;;;-6.76;73.03;102854.03;5084149;28;20054;-72
2024/01/10 05:56:34;;;;;;;3.03;1.58;;;;;;;-6.80;72.79;102857.19;5092383;28;20050;-72
2024/01/10 05:59:01;;;;;;;6.60;3.03;;;;;;;-6.86;73.27;102858.50;5104631;28;20040;-72
2024/01/10 06:01:29;;;;;;;4.63;2.35;;;;;;;-6.89;73.25;102852.25;5080135;28;20090;-72
2024/01/10 06:03:56;;;;;;;9.40;2.67;;;;;;;-6.89;72.88;102853.16;5074909;28;20045;-71
2024/01/10 06:06:23;;;;;;;6.53;2.60;;;;;;;-6.88;73.11;102849.81;5075668;28;20044;-71
2024/01/10 06:08:51;;;;;;;5.80;2.72;;;;;;;-6.89;73.17;102850.59;5069277;28;20052;-71
2024/01/10 06:11:19;;;;;;;6.88;1.73;;;;;;;-6.87;73.33;102854.13;5077067;28;20398;-71
2024/01/10 06:13:46;;;;;;;5.63;2.38;;;;;;;-6.88;73.02;102852.38;5101557;28;20072;-71
2024/01/10 06:16:23;;;;;;;6.63;3.20;;;;;;;-6.81;73.28;102855.38;5076240;28;20040;-71
2024/01/10 06:18:50;;;;;;;6.00;2.78;;;;;;;-6.77;73.53;102850.59;5072715;28;20177;-71
2024/01/10 06:21:17;;;;;;;3.90;2.00;;;;;;;-6.74;73.72;102850.81;5077485;28;20047;-71
2024/01/10 06:23:44;;;;;;;6.88;2.55;;;;;;;-6.69;73.66;102843.47;5079309;28;20044;-71
2024/01/10 06:26:12;;;;;;;4.65;2.03;;;;;;;-6.66;73.01;102848.78;5076266;28;20048;-71
2024/01/10 06:28:39;;;;;;;5.05;2.33;;;;;;;-6.66;72.98;102847.91;5084665;28;20086;-71
2024/01/10 06:31:07;;;;;;;4.55;2.33;;;;;;;-6.65;72.99;102847.13;5081586;28;20044;-71
2024/01/10 06:33:38;;;;;;;7.60;2.67;;;;;;;-6.65;72.81;102842.00;5076262;28;20046;-71
2024/01/10 06:36:06;;;;;;;5.50;2.88;;;;;;;-6.68;72.51;102846.91;5078575;28;20051;-71
2024/01/10 06:38:33;;;;;;;4.15;2.28;;;;;;;-6.74;72.42;102831.97;5084106;28;20123;-71
2024/01/10 06:41:00;;;;;;;5.22;2.75;;;;;;;-6.78;72.29;102835.09;5081279;28;20051;-71
2024/01/10 06:43:27;;;;;;;5.68;2.50;;;;;;;-6.82;72.40;102841.69;5075264;28;20040;-71
2024/01/10 06:45:55;;;;;;;4.63;2.33;;;;;;;-6.83;72.63;102846.69;5071344;28;20072;-71
2024/01/10 06:48:23;;;;;;;5.00;2.85;;;;;;;-6.82;72.76;102851.03;5081076;28;20627;-71
2024/01/10 06:50:50;;;;;;;9.63;4.05;;;;;;;-6.87;72.76;102843.00;5077322;28;20126;-71
2024/01/10 06:53:17;;;;;;;6.07;3.13;;;;;;;-6.88;72.86;102851.47;5083032;28;20148;-71
2024/01/10 06:55:45;;;;;;;3.60;2.10;;;;;;;-6.89;73.29;102849.69;5071435;28;20041;-71
2024/01/10 06:58:12;;;;;;;8.45;3.20;;;;;;;-6.91;73.14;102849.59;5091182;28;20048;-71
2024/01/10 07:00:39;;;;;;;11.20;3.15;;;;;;;-6.90;73.15;102841.13;5076407;28;20520;-71
2024/01/10 07:03:07;;;;;;;3.72;1.92;;;;;;;-6.88;73.40;102838.66;5067035;28;20094;-71
2024/01/10 07:05:34;;;;;;;6.32;2.95;;;;;;;-6.89;73.73;102832.66;5075466;28;20050;-71
2024/01/10 07:08:03;;;;;;;4.85;2.50;;;;;;;-6.89;73.74;102840.34;5077725;28;20060;-71
2024/01/10 07:10:30;;;;;;;4.78;2.58;;;;;;;-6.90;73.44;102840.19;5071899;28;20121;-71
2024/01/10 07:12:57;;;;;;;5.88;2.35;;;;;;;-6.90;73.63;102840.19;5080668;28;20032;-71
2024/01/10 07:15:24;;;;;;;4.63;2.40;;;;;;;-6.94;73.78;102849.34;5097570;28;20145;-71
2024/01/10 07:17:52;;;;;;;4.95;2.83;;;;;;;-6.92;73.96;102852.06;5087422;28;20127;-71
2024/01/10 07:20:19;;;;;;;8.35;3.22;;;;;;;-6.96;73.88;102850.91;5104606;28;20051;-71
2024/01/10 07:22:46;;;;;;;5.65;2.65;;;;;;;-6.98;74.31;102859.28;5089066;28;20119;-71
2024/01/10 07:25:14;;;;;;;6.82;2.78;;;;;;;-6.99;74.33;102857.47;5072461;28;20068;-71
2024/01/10 07:27:41;;;;;;;16.98;2.65;;;;;;;-7.02;74.30;102864.16;5070376;28;20072;-71
2024/01/10 07:30:16;;;;;;;5.95;2.50;;;;;;;-7.02;74.54;102866.72;5078940;28;20043;-71
2024/01/10 07:32:44;;;;;;;5.38;2.25;;;;;;;-6.99;74.75;102860.97;5088631;28;20048;-70
2024/01/10 07:35:13;;;;;;;4.38;2.83;;;;;;;-6.97;74.51;102861.06;5080397;28;20052;-70
2024/01/10 07:37:42;;;;;;;15.15;2.70;;;;;;;-6.99;74.64;102868.66;5081928;28;20094;-71
2024/01/10 07:40:10;;;;;;;4.90;2.65;;;;;;;-6.99;74.69;102872.88;5094879;28;20041;-70
2024/01/10 07:42:39;;;;;;;4.43;2.28;;;;;;;-7.05;74.52;102878.44;5080448;28;20586;-70
2024/01/10 07:45:07;;;;;;;6.75;2.70;;;;;;;-7.08;74.90;102868.84;5084642;28;20528;-70
2024/01/10 07:47:37;;;;;;;9.35;2.65;;;;;;;-7.05;74.64;102866.53;5077011;28;20040;-70
2024/01/10 07:50:06;;;;;;;5.57;2.25;;;;;;;-7.03;75.04;102854.72;5088580;28;20040;-70
2024/01/10 07:52:34;;;;;;;7.88;3.13;;;;;;;-6.99;75.03;102852.34;5090427;28;20464;-70
2024/01/10 07:55:06;;;;;;;5.20;2.38;;;;;;;-6.98;75.21;102854.16;5074435;28;20481;-70
2024/01/10 07:57:33;;;;;;;6.10;2.78;;;;;;;-6.99;74.98;102854.91;5082297;28;20075;-70
2024/01/10 08:00:03;;;;;;;7.28;2.88;;;;;;;-6.96;74.89;102853.47;5086648;28;20044;-70
2024/01/10 08:02:34;;;;;;;6.03;2.17;;;;;;;-6.95;75.07;102852.69;5084298;28;20071;-71
2024/01/10 08:05:08;;;;;;;5.20;2.10;;;;;;;-6.95;75.19;102851.81;5077716;28;20482;-70
2024/01/10 08:07:38;;;;;;;7.28;2.80;;;;;;;-6.94;74.98;102848.47;5074833;28;20457;-70
2024/01/10 08:10:10;;;;;;;5.88;2.58;;;;;;;-6.89;74.76;102847.13;5067676;28;20040;-70
2024/01/10 08:12:38;;;;;;;6.53;2.60;;;;;;;-6.85;75.11;102854.28;5068385;28;20119;-70
2024/01/10 08:15:06;;;;;;;7.82;2.78;;;;;;;-6.84;75.07;102852.59;5083795;28;20070;-70
2024/01/10 08:17:34;;;;;;;4.53;2.35;;;;;;;-6.79;75.07;102864.97;5068667;28;20048;-70
2024/01/10 08:20:03;;;;;;;6.30;2.53;;;;;;;-6.76;74.85;102860.06;5069491;28;20055;-70
2024/01/10 08:22:31;;;;;;;5.13;2.90;;;;;;;-6.70;74.79;102862.19;5081859;28;20025;-71
2024/01/10 08:24:58;;;;;;;4.95;2.60;;;;;;;-6.63;74.30;102859.28;5086356;28;20043;-71
2024/01/10 08:27:25;;;;;;;7.65;3.85;;;;;;;-6.55;73.88;102852.16;5088649;28;20051;-71
2024/01/10 08:29:52;;;;;;;10.90;3.28;;;;;;;-6.46;73.71;102849.38;5086683;28;20047;-70
2024/01/10 08:32:21;;;;;;;8.27;3.95;;;;;;;-6.42;73.45;102846.22;5087896;28;20499;-70
2024/01/10 08:34:49;;;;;;;7.00;3.20;;;;;;;-6.39;73.26;102854.16;5086418;28;20060;-70
2024/01/10 08:37:17;;;;;;;6.05;3.03;;;;;;;-6.37;73.27;102855.16;5103154;28;20044;-70
2024/01/10 08:39:44;;;;;;;6.25;2.78;;;;;;;-6.31;73.35;102852.13;5092482;28;20040;-70
2024/01/10 08:42:11;;;;;;;5.00;3.33;;;;;;;-6.24;72.62;102844.94;5067828;28;20029;-70
2024/01/10 08:44:39;;;;;;;4.90;3.03;;;;;;;-6.16;72.27;102842.94;5066362;28;20090;-70
2024/01/10 08:47:06;;;;;;;6.35;2.88;;;;;;;-6.10;72.23;102843.34;5066656;28;20048;-70
2024/01/10 08:49:33;;;;;;;5.10;2.80;;;;;;;-6.04;72.04;102839.44;5068566;28;20049;-70
2024/01/10 08:52:00;;;;;;;7.00;3.42;;;;;;;-5.96;71.54;102844.31;5067808;28;20048;-70
2024/01/10 08:54:28;;;;;;;7.80;2.70;;;;;;;-5.88;71.61;102856.78;5067153;28;20127;-70
2024/01/10 08:56:56;;;;;;;5.88;2.85;;;;;;;-5.80;70.82;102841.09;5067452;28;20041;-70
2024/01/10 08:59:24;;;;;;;7.32;2.70;;;;;;;-5.71;70.58;102855.38;5066978;28;20520;-70
2024/01/10 09:01:52;;;;;;;8.27;3.70;;;;;;;-5.64;70.16;102849.88;5067785;28;20041;-70
2024/01/10 09:04:19;;;;;;;9.05;3.70;;;;;;;-5.53;69.04;102848.03;5068543;28;20044;-70
2024/01/10 09:06:47;;;;;;;7.80;3.60;;;;;;;-5.48;69.12;102851.81;5067562;28;20049;-70
2024/01/10 09:09:14;;;;;;;10.88;3.40;;;;;;;-5.41;68.50;102842.84;5071321;28;20048;-70
2024/01/10 09:11:41;;;;;;;12.38;3.83;;;;;;;-5.32;68.21;102864.03;5072061;28;20041;-70
2024/01/10 09:14:12;;;;;;;5.38;3.00;;;;;;;-5.27;68.03;102847.22;5090662;28;20048;-70
2024/01/10 09:16:39;;;;;;;6.72;3.58;;;;;;;-5.25;68.04;102853.34;5087396;28;20063;-70
2024/01/10 09:19:06;;;;;;;17.88;4.55;;;;;;;-5.21;67.91;102860.50;5105959;28;20064;-70
2024/01/10 09:21:37;;;;;;;9.48;4.57;;;;;;;-5.13;67.97;102863.56;5107524;28;20064;-70
2024/01/10 09:24:08;;;;;;;8.20;3.75;;;;;;;-5.04;67.33;102847.84;5107371;28;20055;-70
2024/01/10 09:26:53;;;;;;;9.57;4.15;;;;;;;-4.94;66.75;102852.81;5080926;28;20042;-70
2024/01/10 09:29:21;;;;;;;8.10;3.92;;;;;;;-4.90;66.72;102857.38;5080573;28;20639;-71
2024/01/10 09:31:48;;;;;;;8.52;3.75;;;;;;;-4.86;66.64;102861.03;5074007;28;20504;-70
2024/01/10 09:34:16;;;;;;;10.20;4.43;;;;;;;-4.78;66.85;102858.97;5053795;28;21012;-70
2024/01/10 09:36:43;;;;;;;7.68;3.85;;;;;;;-4.70;66.58;102865.50;5083614;28;20568;-72
2024/01/10 09:39:13;;;;;;;11.10;4.53;;;;;;;-4.62;65.93;102866.88;5078138;28;20075;-71
2024/01/10 09:41:50;;;;;;;10.43;3.90;;;;;;;-4.55;65.52;102863.91;5090230;28;20040;-71
2024/01/10 09:44:21;;;;;;;8.63;4.07;;;;;;;-4.45;64.99;102867.97;5091833;28;20040;-70
2024/01/10 09:46:54;;;;;;;6.60;3.40;;;;;;;-4.40;65.12;102870.84;5072117;28;20343;-71
2024/01/10 09:49:22;;;;;;;8.90;3.35;;;;;;;-4.35;64.32;102874.59;5088839;28;20104;-72
2024/01/10 09:51:59;;;;;;;7.85;3.88;;;;;;;-4.32;65.49;102877.38;5087998;28;20046;-71
2024/01/10 09:54:29;;;;;;;12.85;4.82;;;;;;;-4.22;65.02;102876.25;5068722;28;20036;-72
2024/01/10 09:56:58;;;;;;;11.63;4.38;;;;;;;-4.14;64.30;102875.06;5085845;28;20044;-71
2024/01/10 09:59:25;;;;;;;8.13;4.57;;;;;;;-4.04;64.08;102873.06;5069744;28;20044;-71
2024/01/10 10:01:53;;;;;;;12.02;5.10;;;;;;;-4.02;63.71;102869.78;5075885;28;20028;-70
2024/01/10 10:04:22;;;;;;;13.13;4.85;;;;;;;-3.96;64.08;102866.69;5096315;28;20131;-70
2024/01/10 10:07:01;;;;;;;10.93;5.20;;;;;;;-3.85;63.36;102872.50;5070818;28;20074;-70
2024/01/10 10:09:32;;;;;;;10.20;5.15;;;;;;;-3.79;63.15;102872.91;5078126;28;20048;-69
2024/01/10 10:11:59;;;;;;;9.63;4.70;;;;;;;-3.70;62.46;102868.31;5104077;28;20040;-70
2024/01/10 10:14:30;;;;;;;9.18;5.38;;;;;;;-3.62;61.45;102869.66;5096273;28;20062;-70
2024/01/10 10:17:17;;;;;;;12.25;4.13;;;;;;;-3.53;61.01;102879.66;5071895;28;20052;-70
2024/01/10 10:19:45;;;;;;;8.82;4.88;;;;;;;-3.48;60.33;102862.75;5076076;28;20048;-70
2024/01/10 10:22:12;;;;;;;8.57;4.00;;;;;;;-3.38;60.00;102869.34;5096231;28;20040;-70
2024/01/10 10:24:44;;;;;;;12.02;6.32;;;;;;;-3.32;59.67;102866.25;5085832;28;20039;-71
2024/01/10 10:27:15;;;;;;;12.60;5.78;;;;;;;-3.22;58.21;102860.84;5090171;28;20051;-71
2024/01/10 10:29:42;;;;;;;13.43;5.70;;;;;;;-3.14;57.57;102857.00;5070827;28;20048;-71
2024/01/10 10:32:15;;;;;;;10.63;3.97;;;;;;;-3.08;57.25;102855.56;5078758;28;20048;-70
2024/01/10 10:34:42;;;;;;;10.95;4.80;;;;;;;-3.03;57.24;102860.19;5076298;28;20063;-70
2024/01/10 10:37:10;;;;;;;8.00;4.43;;;;;;;-2.97;57.16;102851.94;5081604;28;20051;-70
2024/01/10 10:39:37;;;;;;;11.30;5.97;;;;;;;-2.92;56.75;102847.03;5087906;28;20067;-70
2024/01/10 10:42:06;;;;;;;11.88;4.82;;;;;;;-2.86;56.03;102849.97;5105187;28;20047;-70
2024/01/10 10:44:40;;;;;;;16.80;9.63;;;;;;;-2.79;56.19;102839.19;5105258;28;20067;-70
2024/01/10 10:47:11;;;;;;;13.48;4.53;;;;;;;-2.71;56.25;102839.63;5089129;28;20052;-70
2024/01/10 10:49:52;;;;;;;19.55;10.20;;;;;;;-2.65;55.82;102837.38;5090003;28;20552;-70
2024/01/10 10:52:22;;;;;;;15.60;9.55;;;;;;;-2.57;55.45;102838.69;5084616;28;20033;-70
2024/01/10 10:54:55;;;;;;;17.38;9.85;;;;;;;-2.52;55.07;102844.13;5072239;28;20494;-70
2024/01/10 10:57:26;;;;;;;13.05;5.05;;;;;;;-2.43;54.58;102836.00;5076114;28;20044;-70
2024/01/10 10:59:55;;;;;;;10.80;5.28;;;;;;;-2.40;54.25;102828.44;5102811;28;20136;-70
2024/01/10 11:02:23;;;;;;;13.27;5.68;;;;;;;-2.36;54.42;102831.25;5073760;28;20062;-70
2024/01/10 11:04:58;;;;;;;12.68;5.20;;;;;;;-2.28;53.75;102826.50;5085454;28;20131;-69
2024/01/10 11:07:27;;;;;;;11.80;6.35;;;;;;;-2.23;54.04;102827.66;5081474;28;20427;-70
2024/01/10 11:09:55;;;;;;;41.90;4.78;;;;;;;-2.16;53.13;102830.56;5086340;28;20130;-69
2024/01/10 11:12:59;;;;;;;10.68;5.38;;;;;;;-2.08;52.91;102842.19;5087153;28;20121;-69
2024/01/10 11:15:55;;;;;;;11.10;5.13;;;;;;;-1.98;53.07;102828.06;5085900;28;20068;-71
2024/01/10 11:18:25;;;;;;;;;;;;;;;-1.89;52.77;102832.06;5077332;28;20487;-69
2024/01/10 11:21:36;;;;;;;9.80;4.63;;;;;;;-1.83;53.26;102820.25;5082784;28;19984;-70
2024/01/10 11:24:06;;;;;;;11.57;5.28;;;;;;;-1.75;51.68;102816.34;5086225;28;20066;-69
2024/01/10 11:26:33;;;;;;;12.27;5.85;;;;;;;-1.73;52.11;102810.44;5088684;28;20419;-70
2024/01/10 11:29:01;;;;;;;12.75;6.13;;;;;;;-1.66;52.00;102813.38;5076780;28;20048;-70
2024/01/10 11:31:31;;;;;;;15.10;5.90;;;;;;;-1.58;51.79;102817.25;5094518;28;20067;-70